| time (UTC) | temp F | wind direction | speed MPH | gust MPH | rain 1hr in | rain 24hr in | rain mn in | humidity % | barometer mb |
| 20260510063645 | 72 | 348 | 0.0 | 1.0 | 0.00 | 0.00 | 0.00 | 45 | 1006.9 |
| 20260510062840 | 70 | 348 | 1.0 | 1.0 | 0.00 | 0.00 | 0.00 | 45 | 1006.9 |
| 20260510062413 | 70 | 315 | 0.0 | 124.0 | 0.00 | 0.00 | 0.00 | 44 | 1006.7 |
| 20260510062212 | 69 | 225 | 0.0 | 124.0 | 0.00 | 0.00 | 0.00 | 43 | 1006.8 |
| 20260510062009 | 69 | 180 | 124.0 | 124.0 | 0.00 | 0.00 | 0.00 | 45 | 1006.7 |
| 20260510061707 | 68 | 247 | 0.0 | 123.0 | 0.00 | 0.00 | 0.00 | 45 | 1006.8 |
| 20260510061505 | 68 | 225 | 0.0 | 123.0 | 0.00 | 0.00 | 0.00 | 45 | 1006.8 |
| 20260510061411 | 67 | 0 | 123.0 | 123.0 | 0.00 | 0.00 | 0.00 | 46 | 1006.6 |
| 20260510061303 | 67 | 0 | 123.0 | 123.0 | 0.00 | 0.00 | 0.00 | 46 | 1006.6 |
| 20260510061052 | 67 | 315 | 0.0 | 2.0 | 0.00 | 0.00 | 0.00 | 48 | 1006.7 |
| 20260510060850 | 66 | 337 | 2.0 | 126.0 | 0.00 | 0.00 | 0.00 | 45 | 1006.8 |
| 20260510060648 | 66 | 292 | 1.0 | 126.0 | 0.00 | 0.00 | 0.00 | 45 | 1006.8 |
| 20260510060546 | 66 | 225 | 126.0 | 126.0 | 0.00 | 0.00 | 0.00 | 45 | 1006.7 |
| 20260510060332 | 65 | 236 | 2.0 | 4.0 | 0.00 | 0.00 | 0.00 | 45 | 1006.7 |
| 20260510055927 | 65 | 45 | 3.0 | 3.0 | 0.00 | 0.00 | 0.00 | 47 | 1006.7 |
| 20260510055655 | 64 | 236 | 3.0 | 123.0 | 0.00 | 0.00 | 0.00 | 48 | 1006.8 |
| 20260510055123 | 63 | 292 | 0.0 | 1.0 | 0.00 | 0.00 | 0.00 | 49 | 1006.8 |
| 20260510054517 | 62 | 292 | 0.0 | 0.0 | 0.00 | 0.00 | 0.00 | 49 | 1006.9 |
| 20260510054209 | 62 | 247 | 0.0 | 3.0 | 0.00 | 0.00 | 0.00 | 47 | 1007.0 |
| 20260510054007 | 61 | 45 | 2.0 | 126.0 | 0.00 | 0.00 | 0.00 | 48 | 1006.9 |
| 20260510053703 | 61 | 33 | 126.0 | 126.0 | 0.00 | 0.00 | 0.00 | 49 | 1006.7 |
| 20260510053615 | 61 | 45 | 3.0 | 3.0 | 0.00 | 0.00 | 0.00 | 50 | 1006.9 |
| 20260510053417 | 60 | 45 | 3.0 | 3.0 | 0.00 | 0.00 | 0.00 | 51 | 1006.8 |
| 20260510053211 | 60 | 236 | 2.0 | 2.0 | 0.00 | 0.00 | 0.00 | 52 | 1006.8 |
| 20260510053008 | 60 | 326 | 0.0 | 0.0 | 0.00 | 0.00 | 0.00 | 52 | 1006.9 |
| 20260510052102 | 58 | 225 | 126.0 | 126.0 | 0.00 | 0.00 | 0.00 | 50 | 1006.9 |
| 20260510052040 | 58 | 225 | 1.0 | 5.0 | 0.00 | 0.00 | 0.00 | 50 | 1006.8 |
| 20260510051838 | 58 | 247 | 4.0 | 5.0 | 0.00 | 0.00 | 0.00 | 51 | 1006.9 |
| 20260510051231 | 58 | 0 | 7.0 | 8.0 | 0.00 | 0.00 | 0.00 | 51 | 1006.8 |
| 20260510051034 | 58 | 0 | 7.0 | 8.0 | 0.00 | 0.00 | 0.00 | 51 | 1007.0 |
| 20260510050625 | 57 | 0 | 5.0 | 7.0 | 0.00 | 0.00 | 0.00 | 51 | 1006.9 |
| 20260510050422 | 57 | 0 | 6.0 | 6.0 | 0.00 | 0.00 | 0.00 | 52 | 1007.0 |
| 20260510045817 | 57 | 0 | 3.0 | 123.0 | 0.00 | 0.00 | 0.00 | 52 | 1006.6 |
| 20260510045614 | 57 | 348 | 0.0 | 123.0 | 0.00 | 0.00 | 0.00 | 52 | 1006.9 |
| 20260510045511 | 57 | 337 | 123.0 | 123.0 | 0.00 | 0.00 | 0.00 | 51 | 1006.7 |
| 20260510044731 | 57 | 247 | 7.0 | 8.0 | 0.00 | 0.00 | 0.00 | 52 | 1006.8 |
| 20260510044528 | 57 | 0 | 8.0 | 8.0 | 0.00 | 0.00 | 0.00 | 52 | 1006.9 |
| 20260510044325 | 57 | 0 | 5.0 | 7.0 | 0.00 | 0.00 | 0.00 | 52 | 1007.0 |
| 20260510044123 | 57 | 0 | 6.0 | 6.0 | 0.00 | 0.00 | 0.00 | 53 | 1007.1 |
| 20260510043318 | 57 | 292 | 5.0 | 6.0 | 0.00 | 0.00 | 0.00 | 53 | 1007.0 |
| 20260510042914 | 57 | 247 | 6.0 | 7.0 | 0.00 | 0.00 | 0.00 | 54 | 1006.8 |
| 20260510042710 | 57 | 247 | 5.0 | 7.0 | 0.00 | 0.00 | 0.00 | 54 | 1007.2 |
| 20260510042002 | 57 | 348 | 126.0 | 126.0 | 0.00 | 0.00 | 0.00 | 54 | 1006.9 |
| 20260510041658 | 57 | 0 | 5.0 | 7.0 | 0.00 | 0.00 | 0.00 | 55 | 1007.0 |
| 20260510041456 | 57 | 292 | 7.0 | 7.0 | 0.00 | 0.00 | 0.00 | 54 | 1006.8 |
| 20260510041051 | 57 | 45 | 6.0 | 10.0 | 0.00 | 0.00 | 0.00 | 55 | 1006.8 |
| 20260510040850 | 57 | 348 | 8.0 | 10.0 | 0.00 | 0.00 | 0.00 | 55 | 1007.0 |
| 20260510040647 | 57 | 0 | 8.0 | 8.0 | 0.00 | 0.00 | 0.00 | 54 | 1006.9 |
| 20260510040411 | 58 | 247 | 5.0 | 7.0 | 0.00 | 0.00 | 0.00 | 56 | 1007.1 |
| 20260510040243 | 58 | 247 | 6.0 | 7.0 | 0.00 | 0.00 | 0.00 | 55 | 1007.3 |
| 20260510035833 | 58 | 247 | 5.0 | 7.0 | 0.00 | 0.00 | 0.00 | 56 | 1007.1 |
| 20260510035631 | 58 | 337 | 7.0 | 7.0 | 0.00 | 0.00 | 0.00 | 56 | 1007.2 |
| 20260510035227 | 58 | 247 | 6.0 | 7.0 | 0.00 | 0.00 | 0.00 | 56 | 1006.8 |
| 20260510035027 | 58 | 0 | 7.0 | 7.0 | 0.00 | 0.00 | 0.00 | 56 | 1007.0 |
| 20260510035025 | 58 | 0 | 6.0 | 6.0 | 0.00 | 0.00 | 0.00 | 51 | 1007.1 |
| 20260510034953 | 58 | 0 | 7.0 | 7.0 | 0.00 | 0.00 | 0.00 | 56 | 1007.0 |
| 20260510034800 | 58 | 247 | 5.0 | 7.0 | 0.00 | 0.00 | 0.00 | 55 | 1007.0 |
| 20260510034620 | 58 | 247 | 5.0 | 7.0 | 0.00 | 0.00 | 0.00 | 55 | 1006.9 |
| 20260510034548 | 58 | 247 | 5.0 | 7.0 | 0.00 | 0.00 | 0.00 | 55 | 1006.9 |
| 20260510034144 | 58 | 247 | 6.0 | 6.0 | 0.00 | 0.00 | 0.00 | 57 | 1006.6 |
| 20260510033952 | 58 | 45 | 5.0 | 6.0 | 0.00 | 0.00 | 0.00 | 55 | 1007.1 |
| 20260510033737 | 58 | 247 | 4.0 | 6.0 | 0.00 | 0.00 | 0.00 | 57 | 1006.7 |
| 20260510032736 | 58 | 45 | 6.0 | 6.0 | 0.00 | 0.00 | 0.00 | 59 | 1007.2 |
| 20260510032534 | 58 | 247 | 4.0 | 6.0 | 0.00 | 0.00 | 0.00 | 57 | 1007.3 |
| 20260510032331 | 58 | 45 | 3.0 | 6.0 | 0.00 | 0.00 | 0.00 | 55 | 1007.2 |
| 20260510032139 | 58 | 236 | 5.0 | 7.0 | 0.00 | 0.00 | 0.00 | 55 | 1007.4 |
| 20260510031927 | 58 | 247 | 3.0 | 7.0 | 0.00 | 0.00 | 0.00 | 57 | 1007.4 |
| 20260510031725 | 58 | 45 | 3.0 | 5.0 | 0.00 | 0.00 | 0.00 | 57 | 1007.4 |
| 20260510031523 | 58 | 45 | 3.0 | 3.0 | 0.00 | 0.00 | 0.00 | 57 | 1007.1 |
| 20260510031449 | 58 | 247 | 5.0 | 6.0 | 0.00 | 0.00 | 0.00 | 58 | 1007.0 |
| 20260510031353 | 58 | 247 | 5.0 | 6.0 | 0.00 | 0.00 | 0.00 | 58 | 1007.0 |
| 20260510030948 | 58 | 22 | 4.0 | 7.0 | 0.00 | 0.00 | 0.00 | 55 | 1007.5 |
| 20260510030540 | 58 | 348 | 4.0 | 5.0 | 0.00 | 0.00 | 0.00 | 56 | 1007.0 |
| 20260510030339 | 58 | 0 | 5.0 | 6.0 | 0.00 | 0.00 | 0.00 | 57 | 1007.4 |
| 20260510030137 | 58 | 0 | 5.0 | 6.0 | 0.00 | 0.00 | 0.00 | 58 | 1007.5 |
| 20260510025732 | 58 | 0 | 5.0 | 6.0 | 0.00 | 0.00 | 0.00 | 58 | 1007.5 |
| 20260510025130 | 58 | 247 | 6.0 | 129.0 | 0.00 | 0.00 | 0.00 | 55 | 1007.5 |
| 20260510025023 | 58 | 0 | 129.0 | 129.0 | 0.00 | 0.00 | 0.00 | 57 | 1007.4 |
| 20260510024548 | 58 | 45 | 4.0 | 7.0 | 0.00 | 0.00 | 0.00 | 57 | 1007.0 |
| 20260510024346 | 58 | 45 | 4.0 | 6.0 | 0.00 | 0.00 | 0.00 | 58 | 1007.5 |
| 20260510024144 | 58 | 45 | 3.0 | 5.0 | 0.00 | 0.00 | 0.00 | 58 | 1007.6 |
| 20260510023739 | 58 | 45 | 4.0 | 129.0 | 0.00 | 0.00 | 0.00 | 56 | 1007.6 |
| 20260510023637 | 58 | 45 | 129.0 | 129.0 | 0.00 | 0.00 | 0.00 | 53 | 1007.5 |
| 20260510023529 | 58 | 45 | 130.0 | 130.0 | 0.00 | 0.00 | 0.00 | 57 | 1007.2 |
| 20260510023142 | 58 | 45 | 3.0 | 5.0 | 0.00 | 0.00 | 0.00 | 58 | 1007.6 |
| 20260510022735 | 58 | 337 | 3.0 | 5.0 | 0.00 | 0.00 | 0.00 | 58 | 1007.5 |
| 20260510022533 | 58 | 45 | 4.0 | 5.0 | 0.00 | 0.00 | 0.00 | 58 | 1007.5 |
| 20260510022332 | 58 | 45 | 5.0 | 5.0 | 0.00 | 0.00 | 0.00 | 55 | 1007.4 |
| 20260510022110 | 58 | 11 | 5.0 | 7.0 | 0.00 | 0.00 | 0.00 | 59 | 1007.4 |
| 20260510021702 | 58 | 45 | 4.0 | 7.0 | 0.00 | 0.00 | 0.00 | 58 | 1007.5 |
| 20260510021502 | 59 | 45 | 7.0 | 7.0 | 0.00 | 0.00 | 0.00 | 57 | 1007.0 |
| 20260510021300 | 59 | 45 | 6.0 | 6.0 | 0.00 | 0.00 | 0.00 | 55 | 1007.5 |
| 20260510021109 | 59 | 45 | 6.0 | 7.0 | 0.00 | 0.00 | 0.00 | 59 | 1007.4 |
| 20260510020900 | 59 | 45 | 6.0 | 9.0 | 0.00 | 0.00 | 0.00 | 57 | 1007.5 |
| 20260510020658 | 59 | 45 | 6.0 | 9.0 | 0.00 | 0.00 | 0.00 | 58 | 1007.5 |
| 20260510020454 | 59 | 45 | 6.0 | 9.0 | 0.00 | 0.00 | 0.00 | 59 | 1007.5 |
| 20260510020051 | 59 | 45 | 5.0 | 10.0 | 0.00 | 0.00 | 0.00 | 56 | 1007.3 |
| 20260510015849 | 59 | 45 | 8.0 | 130.0 | 0.00 | 0.00 | 0.00 | 56 | 1007.4 |
| 20260510015648 | 59 | 22 | 4.0 | 130.0 | 0.00 | 0.00 | 0.00 | 59 | 1007.2 |
| 20260510015543 | 59 | 45 | 130.0 | 130.0 | 0.00 | 0.00 | 0.00 | 59 | 1007.6 |
| 20260510014835 | 59 | 22 | 6.0 | 130.0 | 0.00 | 0.00 | 0.00 | 60 | 1007.8 |
| 20260510014633 | 59 | 45 | 6.0 | 130.0 | 0.00 | 0.00 | 0.00 | 58 | 1007.6 |
| 20260510014530 | 59 | 45 | 130.0 | 130.0 | 0.00 | 0.00 | 0.00 | 59 | 1007.6 |
| 20260510014408 | 59 | 45 | 9.0 | 10.0 | 0.00 | 0.00 | 0.00 | 65 | 1007.5 |
| 20260510014002 | 59 | 247 | 9.0 | 9.0 | 0.00 | 0.00 | 0.00 | 58 | 1007.6 |
| 20260510013800 | 59 | 45 | 8.0 | 11.0 | 0.00 | 0.00 | 0.00 | 60 | 1007.3 |
| 20260510013559 | 59 | 45 | 7.0 | 134.0 | 0.00 | 0.00 | 0.00 | 59 | 1007.8 |
| 20260510012959 | 59 | 45 | 8.0 | 13.0 | 0.00 | 0.00 | 0.00 | 59 | 1007.5 |
| 20260510012756 | 59 | 45 | 7.0 | 13.0 | 0.00 | 0.00 | 0.00 | 57 | 1007.7 |
| 20260510012555 | 59 | 45 | 7.0 | 10.0 | 0.00 | 0.00 | 0.00 | 57 | 1007.7 |
| 20260510012150 | 59 | 45 | 5.0 | 11.0 | 0.00 | 0.00 | 0.00 | 60 | 1007.2 |
| 20260510011947 | 60 | 45 | 8.0 | 8.0 | 0.00 | 0.00 | 0.00 | 58 | 1007.5 |
| 20260510011658 | 60 | 45 | 9.0 | 10.0 | 0.00 | 0.00 | 0.00 | 55 | 1007.4 |
| 20260510011454 | 60 | 45 | 6.0 | 9.0 | 0.00 | 0.00 | 0.00 | 59 | 1007.4 |
| 20260510011050 | 60 | 45 | 7.0 | 9.0 | 0.00 | 0.00 | 0.00 | 59 | 1007.5 |
| 20260510010720 | 60 | 45 | 7.0 | 7.0 | 0.00 | 0.00 | 0.00 | 60 | 1007.9 |
| 20260510010647 | 60 | 45 | 7.0 | 7.0 | 0.00 | 0.00 | 0.00 | 60 | 1007.9 |
| 20260510010409 | 60 | 45 | 7.0 | 9.0 | 0.00 | 0.00 | 0.00 | 54 | 1007.8 |
| 20260510010208 | 60 | 45 | 9.0 | 9.0 | 0.00 | 0.00 | 0.00 | 58 | 1008.0 |
| 20260510005804 | 60 | 45 | 6.0 | 130.0 | 0.00 | 0.00 | 0.00 | 57 | 1008.0 |
| 20260510005602 | 60 | 45 | 6.0 | 130.0 | 0.00 | 0.00 | 0.00 | 58 | 1007.1 |
| 20260510005001 | 61 | 45 | 5.0 | 7.0 | 0.00 | 0.00 | 0.00 | 53 | 1008.0 |
| 20260510004834 | 61 | 45 | 4.0 | 129.0 | 0.00 | 0.00 | 0.00 | 57 | 1008.0 |
| 20260510004801 | 61 | 45 | 4.0 | 129.0 | 0.00 | 0.00 | 0.00 | 57 | 1008.0 |
| 20260510004632 | 61 | 45 | 5.0 | 129.0 | 0.00 | 0.00 | 0.00 | 54 | 1008.0 |
| 20260510004558 | 61 | 45 | 5.0 | 129.0 | 0.00 | 0.00 | 0.00 | 54 | 1008.0 |
| 20260510004253 | 61 | 22 | 4.0 | 6.0 | 0.00 | 0.00 | 0.00 | 57 | 1008.1 |
| 20260510004216 | 61 | 22 | 4.0 | 6.0 | 0.00 | 0.00 | 0.00 | 57 | 1008.1 |
| 20260510004057 | 61 | 45 | 5.0 | 5.0 | 0.00 | 0.00 | 0.00 | 56 | 1008.4 |
| 20260510004013 | 61 | 45 | 5.0 | 5.0 | 0.00 | 0.00 | 0.00 | 56 | 1008.4 |
| 20260510003810 | 61 | 45 | 5.0 | 6.0 | 0.00 | 0.00 | 0.00 | 58 | 1008.3 |
| 20260510003609 | 61 | 45 | 5.0 | 128.0 | 0.00 | 0.00 | 0.00 | 56 | 1008.2 |
| 20260510003342 | 61 | 45 | 128.0 | 128.0 | 0.00 | 0.00 | 0.00 | 55 | 1008.3 |
| 20260510003333 | 61 | 45 | 5.0 | 6.0 | 0.00 | 0.00 | 0.00 | 53 | 1008.4 |
| 20260510003305 | 61 | 45 | 128.0 | 128.0 | 0.00 | 0.00 | 0.00 | 55 | 1008.3 |
| 20260510003220 | 61 | 45 | 5.0 | 6.0 | 0.00 | 0.00 | 0.00 | 53 | 1008.4 |
| 20260510003016 | 61 | 45 | 5.0 | 6.0 | 0.00 | 0.00 | 0.00 | 57 | 1008.3 |
| 20260510002813 | 61 | 236 | 5.0 | 5.0 | 0.00 | 0.00 | 0.00 | 56 | 1008.5 |
| 20260510002613 | 61 | 45 | 4.0 | 4.0 | 0.00 | 0.00 | 0.00 | 57 | 1008.4 |
| 20260510002209 | 62 | 45 | 2.0 | 126.0 | 0.00 | 0.00 | 0.00 | 56 | 1008.6 |
| 20260510002105 | 62 | 45 | 126.0 | 126.0 | 0.00 | 0.00 | 0.00 | 54 | 1008.2 |
| 20260510002027 | 62 | 45 | 4.0 | 4.0 | 0.00 | 0.00 | 0.00 | 56 | 1008.3 |
| 20260510001951 | 62 | 45 | 4.0 | 4.0 | 0.00 | 0.00 | 0.00 | 56 | 1008.3 |
| 20260510001618 | 62 | 45 | 2.0 | 3.0 | 0.00 | 0.00 | 0.00 | 54 | 1008.6 |
| 20260510001428 | 62 | 45 | 3.0 | 3.0 | 0.00 | 0.00 | 0.00 | 54 | 1008.4 |
| 20260510001215 | 62 | 45 | 2.0 | 2.0 | 0.00 | 0.00 | 0.00 | 55 | 1008.7 |
| 20260510001013 | 62 | 45 | 1.0 | 1.0 | 0.00 | 0.00 | 0.00 | 55 | 1008.7 |
| 20260510000940 | 62 | 45 | 0.0 | 1.0 | 0.00 | 0.00 | 0.00 | 55 | 1008.5 |
| 20260510000737 | 62 | 337 | 0.0 | 1.0 | 0.00 | 0.00 | 0.00 | 55 | 1008.6 |
| 20260510000535 | 62 | 225 | 0.0 | 124.0 | 0.00 | 0.00 | 0.00 | 54 | 1008.8 |
| 20260510000222 | 62 | 337 | 124.0 | 124.0 | 0.00 | 0.00 | 0.00 | 54 | 1008.7 |
| 20260509235829 | 62 | 292 | 2.0 | 3.0 | 0.00 | 0.00 | 0.00 | 54 | 1008.7 |
| 20260509235752 | 62 | 292 | 2.0 | 3.0 | 0.00 | 0.00 | 0.00 | 54 | 1008.7 |
| 20260509235550 | 62 | 315 | 3.0 | 124.0 | 0.00 | 0.00 | 0.00 | 55 | 1008.6 |
| 20260509235350 | 62 | 315 | 1.0 | 124.0 | 0.00 | 0.00 | 0.00 | 55 | 1008.7 |
| 20260509235317 | 62 | 292 | 124.0 | 124.0 | 0.00 | 0.00 | 0.00 | 55 | 1008.6 |
| 20260509235246 | 62 | 292 | 124.0 | 124.0 | 0.00 | 0.00 | 0.00 | 55 | 1008.6 |
| 20260509235206 | 62 | 315 | 1.0 | 3.0 | 0.00 | 0.00 | 0.00 | 55 | 1008.6 |
| 20260509234955 | 62 | 315 | 2.0 | 3.0 | 0.00 | 0.00 | 0.00 | 57 | 1008.5 |
| 20260509234754 | 62 | 315 | 2.0 | 126.0 | 0.00 | 0.00 | 0.00 | 56 | 1008.7 |
| 20260509234550 | 62 | 292 | 3.0 | 126.0 | 0.00 | 0.00 | 0.00 | 54 | 1008.8 |
| 20260509234449 | 62 | 270 | 126.0 | 126.0 | 0.00 | 0.00 | 0.00 | 54 | 1008.7 |
| 20260509234315 | 62 | 270 | 3.0 | 6.0 | 0.00 | 0.00 | 0.00 | 55 | 1008.8 |
| 20260509233913 | 62 | 270 | 2.0 | 3.0 | 0.00 | 0.00 | 0.00 | 55 | 1008.5 |
| 20260509233505 | 62 | 315 | 0.0 | 0.0 | 0.00 | 0.00 | 0.00 | 56 | 1008.2 |
| 20260509232724 | 62 | 270 | 3.0 | 127.0 | 0.00 | 0.00 | 0.00 | 56 | 1008.5 |
| 20260509232520 | 62 | 315 | 3.0 | 127.0 | 0.00 | 0.00 | 0.00 | 56 | 1008.7 |
| 20260509232355 | 62 | 292 | 3.0 | 3.0 | 0.00 | 0.00 | 0.00 | 55 | 1008.8 |
| 20260509231951 | 62 | 315 | 1.0 | 6.0 | 0.00 | 0.00 | 0.00 | 55 | 1008.6 |
| 20260509231754 | 62 | 315 | 3.0 | 131.0 | 0.00 | 0.00 | 0.00 | 56 | 1008.2 |
| 20260509231616 | 62 | 315 | 5.0 | 131.0 | 0.00 | 0.00 | 0.00 | 56 | 1008.2 |
| 20260509231545 | 62 | 315 | 5.0 | 131.0 | 0.00 | 0.00 | 0.00 | 56 | 1008.2 |
| 20260509231250 | 62 | 270 | 3.0 | 8.0 | 0.00 | 0.00 | 0.00 | 56 | 1008.6 |
| 20260509230916 | 62 | 315 | 2.0 | 4.0 | 0.00 | 0.00 | 0.00 | 55 | 1008.6 |
| 20260509230845 | 62 | 315 | 2.0 | 4.0 | 0.00 | 0.00 | 0.00 | 55 | 1008.6 |
| 20260509230644 | 62 | 292 | 4.0 | 4.0 | 0.00 | 0.00 | 0.00 | 55 | 1008.5 |
| 20260509230411 | 62 | 270 | 1.0 | 3.0 | 0.00 | 0.00 | 0.02 | 55 | 1008.5 |
| 20260509230206 | 62 | 292 | 3.0 | 3.0 | 0.00 | 0.00 | 0.02 | 54 | 1008.5 |
| 20260509230006 | 62 | 270 | 1.0 | 5.0 | 0.00 | 0.00 | 0.02 | 53 | 1008.6 |
| 20260509225256 | 62 | 292 | 2.0 | 4.0 | 0.00 | 0.00 | 0.00 | 52 | 1008.7 |
| 20260509225052 | 62 | 270 | 1.0 | 4.0 | 0.00 | 0.00 | 0.00 | 51 | 1008.7 |
| 20260509224649 | 62 | 315 | 1.0 | 2.0 | 0.00 | 0.00 | 0.00 | 56 | 1008.3 |
| 20260509224348 | 62 | 270 | 1.0 | 3.0 | 0.00 | 0.00 | 0.00 | 51 | 1008.8 |
| 20260509224141 | 62 | 292 | 2.0 | 3.0 | 0.00 | 0.00 | 0.00 | 52 | 1008.8 |
| 20260509223938 | 62 | 315 | 1.0 | 3.0 | 0.00 | 0.00 | 0.00 | 51 | 1008.9 |
| 20260509223736 | 62 | 315 | 3.0 | 3.0 | 0.00 | 0.00 | 0.00 | 52 | 1008.9 |
| 20260509223613 | 62 | 315 | 1.0 | 127.0 | 0.00 | 0.00 | 0.00 | 52 | 1008.9 |
| 20260509223533 | 62 | 315 | 1.0 | 127.0 | 0.00 | 0.00 | 0.00 | 52 | 1008.9 |
| 20260509223332 | 62 | 270 | 1.0 | 127.0 | 0.00 | 0.00 | 0.00 | 52 | 1008.9 |
| 20260509223230 | 62 | 315 | 127.0 | 127.0 | 0.00 | 0.00 | 0.00 | 52 | 1009.0 |
| 20260509223201 | 62 | 292 | 3.0 | 4.0 | 0.00 | 0.00 | 0.00 | 52 | 1008.9 |
| 20260509222956 | 62 | 315 | 1.0 | 4.0 | 0.00 | 0.00 | 0.00 | 52 | 1008.9 |
| 20260509222755 | 62 | 270 | 2.0 | 3.0 | 0.00 | 0.00 | 0.00 | 52 | 1008.8 |
| 20260509222624 | 62 | 315 | 2.0 | 3.0 | 0.00 | 0.00 | 0.00 | 52 | 1008.7 |
| 20260509222553 | 62 | 315 | 2.0 | 3.0 | 0.00 | 0.00 | 0.00 | 52 | 1008.7 |
| 20260509222351 | 62 | 292 | 3.0 | 126.0 | 0.00 | 0.00 | 0.00 | 51 | 1008.8 |
| 20260509222147 | 62 | 315 | 2.0 | 126.0 | 0.00 | 0.00 | 0.00 | 52 | 1008.8 |
| 20260509221948 | 62 | 270 | 3.0 | 5.0 | 0.00 | 0.00 | 0.00 | 52 | 1008.8 |
| 20260509221746 | 62 | 315 | 4.0 | 7.0 | 0.00 | 0.00 | 0.00 | 51 | 1008.7 |
| 20260509221543 | 62 | 270 | 2.0 | 7.0 | 0.00 | 0.00 | 0.00 | 54 | 1008.7 |
| 20260509221345 | 62 | 315 | 7.0 | 7.0 | 0.00 | 0.00 | 0.00 | 51 | 1008.5 |
| 20260509221138 | 62 | 303 | 3.0 | 126.0 | 0.00 | 0.00 | 0.00 | 52 | 1008.7 |
| 20260509220747 | 62 | 292 | 2.0 | 8.0 | 0.00 | 0.00 | 0.00 | 51 | 1008.4 |
| 20260509220709 | 62 | 292 | 2.0 | 8.0 | 0.00 | 0.00 | 0.00 | 51 | 1008.4 |
| 20260509215901 | 62 | 270 | 2.0 | 5.0 | 0.00 | 0.00 | 0.00 | 53 | 1008.5 |
| 20260509215659 | 62 | 315 | 2.0 | 3.0 | 0.00 | 0.00 | 0.00 | 52 | 1008.0 |
| 20260509215456 | 62 | 270 | 2.0 | 2.0 | 0.00 | 0.00 | 0.00 | 52 | 1008.3 |
| 20260509215351 | 62 | 315 | 6.0 | 6.0 | 0.00 | 0.00 | 0.00 | 52 | 1008.2 |
| 20260509215125 | 62 | 348 | 3.0 | 3.0 | 0.00 | 0.00 | 0.00 | 52 | 1008.2 |
| 20260509214946 | 62 | 348 | 3.0 | 3.0 | 0.00 | 0.00 | 0.00 | 52 | 1008.2 |
| 20260509214543 | 62 | 0 | 0.0 | 1.0 | 0.00 | 0.00 | 0.00 | 51 | 1008.0 |
| 20260509214001 | 62 | 0 | 2.0 | 2.0 | 0.00 | 0.00 | 0.00 | 52 | 1008.1 |
| 20260509213556 | 62 | 337 | 0.0 | 0.0 | 0.00 | 0.00 | 0.00 | 52 | 1008.1 |
| 20260509213059 | 63 | 315 | 1.0 | 1.0 | 0.00 | 0.00 | 0.00 | 51 | 1008.0 |
| 20260509212949 | 63 | 315 | 1.0 | 1.0 | 0.00 | 0.00 | 0.00 | 51 | 1008.0 |
| 20260509212739 | 63 | 315 | 0.0 | 1.0 | 0.00 | 0.00 | 0.00 | 50 | 1008.0 |
| 20260509212537 | 63 | 315 | 0.0 | 1.0 | 0.00 | 0.00 | 0.00 | 51 | 1007.9 |
| 20260509212337 | 63 | 270 | 0.0 | 2.0 | 0.00 | 0.00 | 0.00 | 50 | 1007.9 |
| 20260509211930 | 63 | 315 | 2.0 | 2.0 | 0.00 | 0.00 | 0.00 | 50 | 1007.7 |
| 20260509211901 | 63 | 270 | 1.0 | 4.0 | 0.00 | 0.00 | 0.00 | 51 | 1007.6 |
| 20260509211721 | 63 | 270 | 3.0 | 4.0 | 0.00 | 0.00 | 0.00 | 51 | 1007.7 |
| 20260509211645 | 63 | 270 | 3.0 | 4.0 | 0.00 | 0.00 | 0.00 | 51 | 1007.7 |
| 20260509211443 | 63 | 270 | 3.0 | 3.0 | 0.00 | 0.00 | 0.00 | 50 | 1007.7 |
| 20260509211246 | 63 | 303 | 3.0 | 126.0 | 0.00 | 0.00 | 0.00 | 50 | 1007.6 |
| 20260509211039 | 63 | 315 | 3.0 | 126.0 | 0.00 | 0.00 | 0.00 | 50 | 1007.7 |
| 20260509210937 | 63 | 315 | 126.0 | 126.0 | 0.00 | 0.00 | 0.00 | 51 | 1007.7 |
| 20260509210537 | 63 | 270 | 1.0 | 1.0 | 0.00 | 0.00 | 0.00 | 50 | 1007.5 |
| 20260509210335 | 63 | 315 | 1.0 | 2.0 | 0.00 | 0.00 | 0.00 | 50 | 1007.7 |
| 20260509210133 | 63 | 292 | 1.0 | 2.0 | 0.00 | 0.00 | 0.00 | 50 | 1007.7 |
| 20260509205930 | 63 | 270 | 2.0 | 2.0 | 0.00 | 0.00 | 0.00 | 51 | 1007.7 |
| 20260509205644 | 63 | 292 | 2.0 | 2.0 | 0.00 | 0.00 | 0.00 | 49 | 1007.7 |
| 20260509205442 | 63 | 270 | 2.0 | 3.0 | 0.00 | 0.00 | 0.00 | 50 | 1007.6 |
| 20260509205039 | 63 | 315 | 2.0 | 126.0 | 0.00 | 0.00 | 0.00 | 49 | 1007.7 |
| 20260509204541 | 63 | 315 | 3.0 | 5.0 | 0.00 | 0.00 | 0.00 | 50 | 1007.7 |
| 20260509204435 | 63 | 315 | 3.0 | 5.0 | 0.00 | 0.00 | 0.00 | 50 | 1007.7 |
| 20260509204241 | 0 | 292 | 5.0 | 0.0 | 0.00 | 0.00 | 0.00 | ||
| 20260509204233 | 63 | 292 | 5.0 | 5.0 | 0.00 | 0.00 | 0.00 | 50 | 1007.7 |
| 20260509204033 | 63 | 0 | 3.0 | 3.0 | 0.00 | 0.00 | 0.00 | 47 | 1007.5 |
| 20260509203934 | 63 | 348 | 2.0 | 3.0 | 0.00 | 0.00 | 0.00 | 50 | 1007.7 |
| 20260509203736 | 63 | 337 | 1.0 | 2.0 | 0.00 | 0.00 | 0.00 | 50 | 1007.7 |
| 20260509203733 | 63 | 337 | 1.0 | 2.0 | 0.00 | 0.00 | 0.00 | 50 | 1007.7 |
| 20260509203530 | 63 | 337 | 1.0 | 2.0 | 0.00 | 0.00 | 0.00 | 50 | 1007.7 |
| 20260509203328 | 63 | 0 | 1.0 | 3.0 | 0.00 | 0.00 | 0.00 | 50 | 1007.7 |
| 20260509203131 | 63 | 315 | 3.0 | 3.0 | 0.00 | 0.00 | 0.00 | 50 | 1007.6 |
| 20260509202923 | 63 | 0 | 2.0 | 2.0 | 0.00 | 0.00 | 0.00 | 50 | 1007.5 |
| 20260509202720 | 63 | 0 | 1.0 | 1.0 | 0.00 | 0.00 | 0.00 | 49 | 1007.5 |
| 20260509202518 | 63 | 303 | 0.0 | 2.0 | 0.00 | 0.00 | 0.00 | 49 | 1007.6 |
| 20260509202114 | 63 | 315 | 2.0 | 2.0 | 0.00 | 0.00 | 0.00 | 48 | 1007.5 |
| 20260509202038 | 63 | 315 | 2.0 | 2.0 | 0.00 | 0.00 | 0.00 | 49 | 1007.5 |
| 20260509201836 | 64 | 315 | 1.0 | 1.0 | 0.00 | 0.00 | 0.00 | 48 | 1007.4 |
| 20260509201635 | 64 | 270 | 0.0 | 0.0 | 0.00 | 0.00 | 0.00 | 50 | 1007.4 |
| 20260509201230 | 64 | 270 | 0.0 | 0.0 | 0.00 | 0.00 | 0.00 | 49 | 1007.5 |
| 20260509200746 | 64 | 315 | 2.0 | 3.0 | 0.00 | 0.00 | 0.00 | 48 | 1007.3 |
| 20260509200544 | 64 | 315 | 2.0 | 127.0 | 0.00 | 0.00 | 0.00 | 48 | 1007.4 |
| 20260509200342 | 64 | 315 | 4.0 | 127.0 | 0.00 | 0.00 | 0.00 | 48 | 1007.4 |
| 20260509200208 | 64 | 315 | 3.0 | 3.0 | 0.00 | 0.00 | 0.00 | 49 | 1007.3 |
| 20260509200006 | 64 | 315 | 3.0 | 3.0 | 0.00 | 0.00 | 0.00 | 48 | 1007.3 |
| 20260509195804 | 64 | 303 | 3.0 | 4.0 | 0.00 | 0.00 | 0.00 | 48 | 1007.4 |
| 20260509195359 | 64 | 292 | 4.0 | 127.0 | 0.00 | 0.00 | 0.00 | 47 | 1007.2 |
| 20260509195257 | 64 | 337 | 127.0 | 127.0 | 0.00 | 0.00 | 0.00 | 47 | 1007.2 |
| 20260509195237 | 64 | 0 | 3.0 | 3.0 | 0.00 | 0.00 | 0.00 | 47 | 1007.2 |
| 20260509195034 | 64 | 337 | 3.0 | 3.0 | 0.00 | 0.00 | 0.00 | 47 | 1007.2 |
| 20260509194226 | 64 | 270 | 1.0 | 1.0 | 0.00 | 0.00 | 0.00 | 47 | 1007.1 |
| 20260509194158 | 64 | 270 | 1.0 | 2.0 | 0.00 | 0.00 | 0.00 | 47 | 1007.1 |
| 20260509193955 | 65 | 270 | 1.0 | 2.0 | 0.00 | 0.00 | 0.00 | 46 | 1007.1 |
| 20260509193757 | 65 | 270 | 1.0 | 2.0 | 0.00 | 0.00 | 0.00 | 46 | 1007.1 |
| 20260509193551 | 65 | 270 | 1.0 | 126.0 | 0.00 | 0.00 | 0.00 | 46 | 1007.1 |
| 20260509193251 | 65 | 270 | 126.0 | 126.0 | 0.00 | 0.00 | 0.00 | 47 | 1006.9 |
| 20260509193145 | 65 | 270 | 1.0 | 3.0 | 0.00 | 0.00 | 0.00 | 46 | 1007.0 |
| 20260509192942 | 65 | 270 | 3.0 | 3.0 | 0.00 | 0.00 | 0.00 | 45 | 1007.0 |
| 20260509192740 | 65 | 270 | 1.0 | 124.0 | 0.00 | 0.00 | 0.00 | 46 | 1007.0 |
| 20260509192538 | 65 | 270 | 1.0 | 124.0 | 0.00 | 0.00 | 0.00 | 46 | 1007.0 |
| 20260509192109 | 65 | 292 | 3.0 | 3.0 | 0.00 | 0.00 | 0.00 | 46 | 1006.8 |
| 20260509191215 | 65 | 315 | 2.0 | 2.0 | 0.00 | 0.00 | 0.00 | 45 | 1006.8 |
| 20260509190810 | 65 | 292 | 0.0 | 0.0 | 0.00 | 0.00 | 0.00 | 45 | 1006.7 |
| 20260509190001 | 66 | 292 | 0.0 | 0.0 | 0.00 | 0.00 | 0.00 | 45 | 1006.6 |
| 20260509185709 | 66 | 292 | 0.0 | 1.0 | 0.00 | 0.00 | 0.00 | 44 | 1006.6 |
| 20260509185203 | 66 | 303 | 126.0 | 126.0 | 0.00 | 0.00 | 0.00 | 44 | 1006.5 |
| 20260509184949 | 66 | 315 | 1.0 | 3.0 | 0.00 | 0.00 | 0.00 | 45 | 1006.5 |
| 20260509184554 | 66 | 292 | 1.0 | 126.0 | 0.00 | 0.00 | 0.00 | 44 | 1006.3 |
| 20260509184443 | 66 | 303 | 126.0 | 126.0 | 0.00 | 0.00 | 0.00 | 45 | 1006.6 |
| 20260509184357 | 66 | 315 | 2.0 | 2.0 | 0.00 | 0.00 | 0.00 | 44 | 1006.5 |
| 20260509183745 | 66 | 315 | 1.0 | 125.0 | 0.00 | 0.00 | 0.00 | 44 | 1006.4 |
| 20260509183531 | 66 | 315 | 0.0 | 1.0 | 0.00 | 0.00 | 0.00 | 45 | 1006.4 |
| 20260509182925 | 66 | 315 | 2.0 | 123.0 | 0.00 | 0.00 | 0.00 | 45 | 1006.4 |
| 20260509182734 | 66 | 303 | 0.0 | 1.0 | 0.00 | 0.00 | 0.00 | 44 | 1006.3 |
| 20260509182532 | 66 | 337 | 0.0 | 1.0 | 0.00 | 0.00 | 0.00 | 45 | 1006.2 |
| 20260509182330 | 66 | 337 | 1.0 | 2.0 | 0.00 | 0.00 | 0.00 | 44 | 1006.3 |
| 20260509182128 | 66 | 337 | 1.0 | 2.0 | 0.00 | 0.00 | 0.00 | 44 | 1006.3 |
| 20260509181723 | 66 | 337 | 0.0 | 2.0 | 0.00 | 0.00 | 0.00 | 44 | 1006.3 |
| 20260509181522 | 66 | 337 | 2.0 | 125.0 | 0.00 | 0.00 | 0.00 | 44 | 1006.2 |
| 20260509181319 | 66 | 337 | 3.0 | 125.0 | 0.00 | 0.00 | 0.00 | 44 | 1006.3 |
| 20260509181005 | 66 | 337 | 1.0 | 4.0 | 0.00 | 0.00 | 0.00 | 44 | 1006.2 |
| 20260509180803 | 66 | 315 | 1.0 | 4.0 | 0.00 | 0.00 | 0.00 | 44 | 1006.3 |
| 20260509180600 | 66 | 326 | 4.0 | 4.0 | 0.00 | 0.00 | 0.00 | 44 | 1006.3 |
| 20260509174751 | 67 | 315 | 3.0 | 130.0 | 0.00 | 0.00 | 0.00 | 42 | 1006.4 |
| 20260509174455 | 67 | 315 | 3.0 | 130.0 | 0.00 | 0.00 | 0.00 | 42 | 1006.4 |
| 20260509172058 | 69 | 337 | 1.0 | 9.0 | 0.00 | 0.00 | 0.00 | 41 | 1006.5 |
| 20260509171449 | 69 | 303 | 5.0 | 8.0 | 0.00 | 0.00 | 0.00 | 41 | 1006.7 |
| 20260509171251 | 69 | 315 | 6.0 | 8.0 | 0.00 | 0.00 | 0.00 | 41 | 1006.7 |
| 20260509164110 | 70 | 315 | 1.0 | 125.0 | 0.00 | 0.00 | 0.00 | 43 | 1006.6 |
| 20260509163957 | 70 | 315 | 125.0 | 125.0 | 0.00 | 0.00 | 0.00 | 43 | 1006.7 |
| 20260509161604 | 68 | 315 | 4.0 | 5.0 | 0.00 | 0.00 | 0.00 | 44 | 1006.6 |
| 20260509155311 | 66 | 303 | 9.0 | 9.0 | 0.00 | 0.00 | 0.00 | 45 | 1006.8 |
| 20260509154527 | 66 | 315 | 8.0 | 11.0 | 0.00 | 0.00 | 0.00 | 45 | 1006.8 |
| 20260509153922 | 66 | 315 | 9.0 | 9.0 | 0.00 | 0.00 | 0.00 | 44 | 1006.7 |
| 20260509152703 | 67 | 315 | 7.0 | 11.0 | 0.00 | 0.00 | 0.00 | 43 | 1006.7 |
| 20260509152255 | 67 | 315 | 7.0 | 9.0 | 0.00 | 0.00 | 0.00 | 43 | 1006.8 |
| 20260509151451 | 67 | 315 | 6.0 | 12.0 | 0.00 | 0.00 | 0.00 | 42 | 1006.8 |
| 20260509151042 | 67 | 315 | 8.0 | 13.0 | 0.00 | 0.00 | 0.00 | 42 | 1006.9 |
| 20260509144638 | 68 | 315 | 8.0 | 9.0 | 0.00 | 0.00 | 0.00 | 42 | 1007.0 |
| 20260509142008 | 68 | 315 | 7.0 | 11.0 | 0.00 | 0.00 | 0.00 | 41 | 1007.4 |
| 20260509141807 | 68 | 315 | 6.0 | 13.0 | 0.00 | 0.00 | 0.00 | 41 | 1007.5 |
| 20260509140954 | 69 | 315 | 6.0 | 10.0 | 0.00 | 0.00 | 0.00 | 41 | 1007.6 |
| 20260509140548 | 69 | 315 | 10.0 | 11.0 | 0.00 | 0.00 | 0.00 | 40 | 1007.8 |
| 20260509140144 | 69 | 315 | 7.0 | 11.0 | 0.00 | 0.00 | 0.00 | 40 | 1007.8 |
| 20260509135942 | 69 | 315 | 8.0 | 11.0 | 0.00 | 0.00 | 0.00 | 40 | 1007.8 |
| 20260509135740 | 69 | 315 | 11.0 | 12.0 | 0.00 | 0.00 | 0.00 | 40 | 1007.7 |
| 20260509135335 | 69 | 315 | 6.0 | 12.0 | 0.00 | 0.00 | 0.00 | 40 | 1007.8 |
| 20260509135133 | 69 | 315 | 5.0 | 10.0 | 0.00 | 0.00 | 0.00 | 40 | 1007.8 |
| 20260509134526 | 70 | 315 | 9.0 | 11.0 | 0.00 | 0.00 | 0.00 | 39 | 1007.8 |
| 20260509134328 | 70 | 315 | 11.0 | 11.0 | 0.00 | 0.00 | 0.00 | 40 | 1007.8 |
| 20260509134124 | 70 | 315 | 9.0 | 13.0 | 0.00 | 0.00 | 0.00 | 39 | 1007.7 |
| 20260509133922 | 70 | 315 | 12.0 | 13.0 | 0.00 | 0.00 | 0.00 | 39 | 1007.7 |
| 20260509133517 | 70 | 315 | 8.0 | 15.0 | 0.00 | 0.00 | 0.00 | 39 | 1007.6 |
| 20260509133116 | 70 | 315 | 7.0 | 10.0 | 0.00 | 0.00 | 0.00 | 39 | 1007.7 |
| 20260509132912 | 70 | 315 | 7.0 | 8.0 | 0.00 | 0.00 | 0.00 | 39 | 1007.8 |
| 20260509131452 | 70 | 303 | 8.0 | 11.0 | 0.00 | 0.00 | 0.00 | 38 | 1007.8 |
| 20260509131250 | 70 | 292 | 11.0 | 11.0 | 0.00 | 0.00 | 0.00 | 38 | 1007.9 |
| 20260509125834 | 69 | 225 | 8.0 | 11.0 | 0.00 | 0.00 | 0.00 | 39 | 1008.1 |
| 20260509125632 | 69 | 0 | 9.0 | 9.0 | 0.00 | 0.00 | 0.00 | 39 | 1008.1 |
| 20260509124353 | 68 | 0 | 8.0 | 9.0 | 0.00 | 0.00 | 0.00 | 39 | 1008.4 |
| 20260509124014 | 68 | 0 | 8.0 | 9.0 | 0.00 | 0.00 | 0.00 | 39 | 1008.4 |
| 20260509123815 | 68 | 0 | 8.0 | 9.0 | 0.00 | 0.00 | 0.00 | 39 | 1008.3 |
| 20260509123615 | 68 | 225 | 7.0 | 10.0 | 0.00 | 0.00 | 0.00 | 40 | 1008.4 |
| 20260509122401 | 68 | 337 | 6.0 | 12.0 | 0.00 | 0.00 | 0.00 | 39 | 1008.3 |
| 20260509122159 | 68 | 0 | 10.0 | 12.0 | 0.00 | 0.00 | 0.00 | 39 | 1008.3 |
| 20260509121019 | 68 | 315 | 15.0 | 16.0 | 0.00 | 0.00 | 0.00 | 38 | 1008.3 |
| 20260509120818 | 68 | 315 | 15.0 | 16.0 | 0.00 | 0.00 | 0.00 | 39 | 1008.2 |
| 20260509115610 | 68 | 315 | 10.0 | 14.0 | 0.00 | 0.00 | 0.00 | 38 | 1008.4 |
| 20260509115001 | 69 | 315 | 11.0 | 11.0 | 0.00 | 0.00 | 0.00 | 38 | 1008.5 |
| 20260509114915 | 69 | 326 | 11.0 | 11.0 | 0.00 | 0.00 | 0.00 | 38 | 1008.4 |
| 20260509114911 | 69 | 326 | 11.0 | 11.0 | 0.00 | 0.00 | 0.00 | 38 | 1008.4 |
| 20260509114755 | 69 | 326 | 11.0 | 11.0 | 0.00 | 0.00 | 0.00 | 38 | 1008.4 |
| 20260509114156 | 69 | 315 | 11.0 | 14.0 | 0.00 | 0.00 | 0.00 | 37 | 1008.5 |
| 20260509113743 | 69 | 315 | 7.0 | 15.0 | 0.00 | 0.00 | 0.00 | 37 | 1008.5 |
| 20260509113544 | 69 | 315 | 12.0 | 14.0 | 0.00 | 0.00 | 0.00 | 37 | 1008.6 |
| 20260509112934 | 69 | 337 | 9.0 | 14.0 | 0.00 | 0.00 | 0.00 | 37 | 1008.7 |
| 20260509112532 | 69 | 315 | 7.0 | 11.0 | 0.00 | 0.00 | 0.00 | 38 | 1008.8 |
| 20260509112327 | 69 | 315 | 8.0 | 11.0 | 0.00 | 0.00 | 0.00 | 38 | 1008.9 |
| 20260509111923 | 69 | 315 | 9.0 | 11.0 | 0.00 | 0.00 | 0.00 | 38 | 1008.8 |
| 20260509111721 | 69 | 315 | 7.0 | 12.0 | 0.00 | 0.00 | 0.00 | 37 | 1008.8 |
| 20260509111610 | 69 | 326 | 12.0 | 13.0 | 0.00 | 0.00 | 0.00 | 36 | 1008.9 |
| 20260509111518 | 69 | 315 | 11.0 | 12.0 | 0.00 | 0.00 | 0.00 | 36 | 1008.8 |
| 20260509111316 | 69 | 326 | 12.0 | 13.0 | 0.00 | 0.00 | 0.00 | 36 | 1008.9 |
| 20260509110707 | 70 | 315 | 10.0 | 13.0 | 0.00 | 0.00 | 0.00 | 36 | 1009.2 |
| 20260509110449 | 70 | 315 | 11.0 | 11.0 | 0.00 | 0.00 | 0.00 | 36 | 1009.2 |
| 20260509110059 | 70 | 315 | 11.0 | 11.0 | 0.00 | 0.00 | 0.00 | 36 | 1009.2 |
| 20260509105703 | 70 | 315 | 6.0 | 10.0 | 0.00 | 0.00 | 0.00 | 35 | 1009.3 |
| 20260509105453 | 70 | 315 | 7.0 | 10.0 | 0.00 | 0.00 | 0.00 | 35 | 1009.3 |
| 20260509105048 | 70 | 315 | 6.0 | 10.0 | 0.00 | 0.00 | 0.00 | 35 | 1009.3 |
| 20260509104731 | 70 | 337 | 8.0 | 9.0 | 0.00 | 0.00 | 0.00 | 35 | 1009.2 |
| 20260509104644 | 70 | 337 | 8.0 | 9.0 | 0.00 | 0.00 | 0.00 | 35 | 1009.2 |
| 20260509104036 | 70 | 337 | 10.0 | 10.0 | 0.00 | 0.00 | 0.00 | 35 | 1009.2 |
| 20260509103632 | 70 | 315 | 8.0 | 9.0 | 0.00 | 0.00 | 0.00 | 35 | 1009.1 |
| 20260509103433 | 70 | 348 | 5.0 | 9.0 | 0.00 | 0.00 | 0.00 | 34 | 1009.2 |
| 20260509103232 | 70 | 315 | 7.0 | 9.0 | 0.00 | 0.00 | 0.00 | 34 | 1009.1 |
| 20260509102823 | 71 | 337 | 7.0 | 7.0 | 0.00 | 0.00 | 0.00 | 34 | 1009.1 |
| 20260509102422 | 71 | 348 | 5.0 | 11.0 | 0.00 | 0.00 | 0.00 | 33 | 1009.2 |
| 20260509101812 | 72 | 315 | 8.0 | 11.0 | 0.00 | 0.00 | 0.00 | 33 | 1009.1 |
| 20260509101636 | 73 | 315 | 7.0 | 9.0 | 0.00 | 0.00 | 0.00 | 32 | 1009.1 |
| 20260509101413 | 72 | 315 | 9.0 | 10.0 | 0.00 | 0.00 | 0.00 | 32 | 1009.2 |
| 20260509101002 | 73 | 315 | 7.0 | 9.0 | 0.00 | 0.00 | 0.00 | 32 | 1009.1 |
| 20260509100603 | 73 | 315 | 6.0 | 7.0 | 0.00 | 0.00 | 0.00 | 31 | 1009.2 |
| 20260509100556 | 73 | 315 | 6.0 | 8.0 | 0.00 | 0.00 | 0.00 | 32 | 1009.2 |
| 20260509100359 | 73 | 0 | 7.0 | 7.0 | 0.00 | 0.00 | 0.00 | 31 | 1009.2 |
| 20260509095951 | 73 | 315 | 6.0 | 8.0 | 0.00 | 0.00 | 0.00 | 32 | 1009.2 |
| 20260509095724 | 74 | 326 | 6.0 | 7.0 | 0.00 | 0.00 | 0.00 | 31 | 1009.2 |
| 20260509095547 | 74 | 326 | 6.0 | 7.0 | 0.00 | 0.00 | 0.00 | 31 | 1009.2 |
| 20260509094942 | 74 | 0 | 7.0 | 7.0 | 0.00 | 0.00 | 0.00 | 32 | 1009.4 |
| 20260509094738 | 73 | 315 | 3.0 | 7.0 | 0.00 | 0.00 | 0.00 | 32 | 1009.3 |
| 20260509094536 | 73 | 315 | 4.0 | 7.0 | 0.00 | 0.00 | 0.00 | 32 | 1009.3 |
| 20260509094130 | 73 | 326 | 5.0 | 7.0 | 0.00 | 0.00 | 0.00 | 32 | 1009.3 |
| 20260509093529 | 73 | 315 | 2.0 | 7.0 | 0.00 | 0.00 | 0.00 | 32 | 1009.4 |
| 20260509093322 | 73 | 315 | 5.0 | 7.0 | 0.00 | 0.00 | 0.00 | 32 | 1009.4 |
| 20260509092917 | 72 | 0 | 0.0 | 8.0 | 0.00 | 0.00 | 0.00 | 32 | 1009.3 |
| 20260509092716 | 72 | 337 | 3.0 | 8.0 | 0.00 | 0.00 | 0.00 | 32 | 1009.3 |
| 20260509091704 | 72 | 315 | 7.0 | 10.0 | 0.00 | 0.00 | 0.00 | 33 | 1009.1 |
| 20260509091502 | 72 | 315 | 10.0 | 10.0 | 0.00 | 0.00 | 0.00 | 33 | 1009.2 |
| 20260509091057 | 72 | 315 | 7.0 | 9.0 | 0.00 | 0.00 | 0.00 | 34 | 1009.3 |
| 20260509090248 | 72 | 337 | 7.0 | 7.0 | 0.00 | 0.00 | 0.00 | 35 | 1009.3 |
| 20260509090045 | 71 | 315 | 3.0 | 5.0 | 0.00 | 0.00 | 0.00 | 35 | 1009.2 |
| 20260509085439 | 71 | 315 | 2.0 | 3.0 | 0.00 | 0.00 | 0.00 | 35 | 1009.3 |
| 20260509083822 | 70 | 292 | 4.0 | 4.0 | 0.00 | 0.00 | 0.00 | 36 | 1009.2 |
| 20260509081032 | 68 | 315 | 4.0 | 6.0 | 0.00 | 0.00 | 0.00 | 38 | 1009.1 |
| 20260509080952 | 68 | 315 | 4.0 | 6.0 | 0.00 | 0.00 | 0.00 | 38 | 1009.1 |
| 20260509080544 | 68 | 292 | 4.0 | 6.0 | 0.00 | 0.00 | 0.00 | 38 | 1009.1 |
| 20260509080343 | 68 | 292 | 5.0 | 6.0 | 0.00 | 0.00 | 0.00 | 38 | 1009.1 |
| 20260509080004 | 67 | 292 | 2.0 | 126.0 | 0.00 | 0.00 | 0.00 | 40 | 1009.2 |
| 20260509075940 | 67 | 292 | 2.0 | 3.0 | 0.00 | 0.00 | 0.00 | 39 | 1009.1 |
| 20260509075537 | 67 | 292 | 2.0 | 126.0 | 0.00 | 0.00 | 0.00 | 40 | 1009.2 |
| 20260509075333 | 67 | 292 | 2.0 | 126.0 | 0.00 | 0.00 | 0.00 | 40 | 1009.0 |
| 20260509075231 | 67 | 292 | 126.0 | 126.0 | 0.00 | 0.00 | 0.00 | 41 | 1009.1 |
| 20260509074826 | 66 | 45 | 1.0 | 2.0 | 0.00 | 0.00 | 0.00 | 41 | 1009.1 |
| 20260509073812 | 66 | 292 | 1.0 | 1.0 | 0.00 | 0.00 | 0.00 | 41 | 1009.0 |
| 20260509073630 | 66 | 292 | 3.0 | 4.0 | 0.00 | 0.00 | 0.00 | 41 | 1009.1 |
| 20260509073426 | 65 | 292 | 3.0 | 4.0 | 0.00 | 0.00 | 0.00 | 41 | 1009.1 |
| 20260509073224 | 65 | 315 | 2.0 | 3.0 | 0.00 | 0.00 | 0.00 | 41 | 1009.1 |
| 20260509072417 | 65 | 337 | 0.0 | 1.0 | 0.00 | 0.00 | 0.00 | 42 | 1009.2 |
| 20260509072052 | 64 | 337 | 0.0 | 2.0 | 0.00 | 0.00 | 0.00 | 42 | 1009.2 |
| 20260509070511 | 63 | 326 | 123.0 | 123.0 | 0.00 | 0.00 | 0.00 | 44 | 1009.4 |
| 20260509070352 | 63 | 337 | 123.0 | 123.0 | 0.00 | 0.00 | 0.00 | 44 | 1009.5 |
| 20260509065746 | 63 | 292 | 0.0 | 1.0 | 0.00 | 0.00 | 0.00 | 44 | 1009.4 |
| 20260509064808 | 62 | 337 | 1.0 | 1.0 | 0.00 | 0.00 | 0.00 | 44 | 1009.5 |
| 20260509064359 | 61 | 292 | 0.0 | 0.0 | 0.00 | 0.00 | 0.00 | 43 | 1009.6 |
| 20260509064157 | 61 | 292 | 0.0 | 1.0 | 0.00 | 0.00 | 0.00 | 43 | 1009.5 |
| 20260509063959 | 61 | 292 | 0.0 | 1.0 | 0.00 | 0.00 | 0.00 | 43 | 1009.6 |